Time;durP1;ratioP1;P1;durP2;ratioP2;P2;SDS_P1;SDS_P2;PMS_P1;PMS_P2;Temp;Humidity;BMP_temperature;BMP_pressure;BME280_temperature;BME280_humidity;BME280_pressure;Samples;Min_cycle;Max_cycle;Signal;HPM_P1;HPM_P2
2023/10/08 00:01:03;;;;;;;0.20;0.20;;;;;;;19.25;97.15;100807.72;5050691;28;20079;-89
2023/10/08 00:03:29;;;;;;;0.20;0.20;;;;;;;19.33;96.95;100809.31;5050464;28;20029;-91
2023/10/08 00:05:55;;;;;;;0.20;0.20;;;;;;;19.23;97.17;100804.50;5050974;28;20519;-88
2023/10/08 00:08:21;;;;;;;0.20;0.20;;;;;;;19.28;96.81;100817.38;5051082;28;20304;-90
2023/10/08 00:10:47;;;;;;;0.20;0.20;;;;;;;19.20;96.99;100791.22;5050641;28;20035;-90
2023/10/08 00:13:15;;;;;;;0.20;0.20;;;;;;;19.25;96.66;100804.09;5050962;28;20121;-91
2023/10/08 00:15:55;;;;;;;0.20;0.20;;;;;;;19.31;96.82;100805.28;5051035;28;20025;-90
2023/10/08 00:18:22;;;;;;;0.20;0.20;;;;;;;19.25;96.78;100812.56;5050807;28;20354;-90
2023/10/08 00:23:35;;;;;;;0.20;0.20;;;;;;;19.13;96.32;100810.97;5052190;28;20048;-90
2023/10/08 00:26:06;;;;;;;0.20;0.20;;;;;;;19.06;97.81;100800.50;5050533;28;20037;-90
2023/10/08 00:28:31;;;;;;;0.20;0.20;;;;;;;19.05;98.92;100800.91;5050600;28;20025;-90
2023/10/08 00:31:13;;;;;;;0.20;0.20;;;;;;;18.96;100.00;100783.59;5050613;28;20048;-90
2023/10/08 00:33:39;;;;;;;0.20;0.20;;;;;;;19.02;100.00;100796.09;5050675;28;20079;-90
2023/10/08 00:36:18;;;;;;;0.20;0.20;;;;;;;19.06;100.00;100799.69;5050853;28;20029;-90
2023/10/08 00:38:44;;;;;;;0.20;0.20;;;;;;;19.03;100.00;100794.88;5050484;28;20380;-90
2023/10/08 00:41:21;;;;;;;0.20;0.20;;;;;;;19.06;100.00;100782.78;5050293;28;20025;-90
2023/10/08 00:43:48;;;;;;;0.20;0.20;;;;;;;19.06;100.00;100789.22;5050825;28;20119;-91
2023/10/08 00:46:22;;;;;;;0.20;0.20;;;;;;;18.96;100.00;100766.69;5051231;28;20556;-90
2023/10/08 00:48:51;;;;;;;0.15;0.15;;;;;;;19.08;100.00;100780.38;5051562;28;20111;-90
2023/10/08 00:53:59;;;;;;;0.20;0.20;;;;;;;19.01;100.00;100777.53;5051479;28;20077;-90
2023/10/08 00:56:45;;;;;;;0.20;0.20;;;;;;;18.98;100.00;100767.09;5050265;28;20439;-92
2023/10/08 00:59:15;;;;;;;0.20;0.20;;;;;;;18.93;100.00;100773.94;5050399;28;20028;-90
2023/10/08 01:02:08;;;;;;;0.20;0.20;;;;;;;18.90;100.00;100768.31;5050371;28;20048;-90
2023/10/08 01:04:34;;;;;;;0.20;0.20;;;;;;;18.88;100.00;100770.75;5051411;28;20396;-91
2023/10/08 01:07:10;;;;;;;0.20;0.20;;;;;;;18.92;100.00;100765.91;5050545;28;20488;-89
2023/10/08 01:09:35;;;;;;;0.20;0.20;;;;;;;18.90;100.00;100763.47;5051048;28;20021;-90
2023/10/08 01:12:27;;;;;;;0.20;0.20;;;;;;;18.67;100.00;100738.53;5051483;28;20465;-91
2023/10/08 01:14:53;;;;;;;0.20;0.20;;;;;;;18.79;100.00;100769.13;5049684;28;20115;-90
2023/10/08 01:17:31;;;;;;;0.20;0.20;;;;;;;18.75;100.00;100754.25;5054189;28;20025;-90
2023/10/08 01:20:05;;;;;;;0.20;0.20;;;;;;;18.86;100.00;100750.63;5054263;28;20544;-90
2023/10/08 01:22:30;;;;;;;0.20;0.20;;;;;;;18.64;100.00;100722.41;5054105;28;20031;-90
2023/10/08 01:24:57;;;;;;;0.20;0.20;;;;;;;18.74;100.00;100727.25;5053943;28;20468;-90
2023/10/08 01:27:24;;;;;;;0.20;0.20;;;;;;;18.75;100.00;100728.88;5053880;28;20025;-91
2023/10/08 01:29:51;;;;;;;0.20;0.20;;;;;;;18.94;100.00;100746.56;5053776;28;20021;-91
2023/10/08 01:32:22;;;;;;;0.20;0.20;;;;;;;18.77;100.00;100745.38;5055281;28;20489;-90
2023/10/08 01:34:48;;;;;;;0.20;0.20;;;;;;;18.77;100.00;100754.66;5053809;28;20116;-90
2023/10/08 01:37:16;;;;;;;0.20;0.20;;;;;;;18.83;100.00;100755.03;5053875;28;20039;-90
2023/10/08 01:39:43;;;;;;;0.20;0.20;;;;;;;18.84;100.00;100759.47;5053826;28;20469;-90
2023/10/08 01:42:17;;;;;;;0.20;0.20;;;;;;;18.83;100.00;100758.66;5053469;28;20025;-90
2023/10/08 01:44:48;;;;;;;0.20;0.20;;;;;;;18.82;100.00;100757.06;5053718;28;20090;-90
2023/10/08 01:47:15;;;;;;;0.20;0.20;;;;;;;18.83;100.00;100758.66;5053468;28;20060;-91
2023/10/08 01:49:43;;;;;;;0.20;0.20;;;;;;;18.83;100.00;100761.47;5053525;28;20031;-91
2023/10/08 01:52:13;;;;;;;0.20;0.20;;;;;;;18.64;100.00;100732.88;5053448;28;20029;-90
2023/10/08 01:54:40;;;;;;;0.20;0.20;;;;;;;18.70;100.00;100739.78;5052889;28;20128;-90
2023/10/08 01:57:08;;;;;;;0.20;0.20;;;;;;;18.65;100.00;100738.13;5053400;28;20025;-90
2023/10/08 01:59:33;;;;;;;0.20;0.20;;;;;;;18.85;100.00;100758.25;5054754;28;20028;-90
2023/10/08 02:01:59;;;;;;;0.20;0.20;;;;;;;18.75;100.00;100745.81;5052960;28;20131;-90
2023/10/08 02:04:25;;;;;;;0.20;0.20;;;;;;;18.82;100.00;100762.69;5053432;28;20017;-90
2023/10/08 02:06:50;;;;;;;0.17;0.17;;;;;;;18.77;100.00;100748.22;5053356;28;20024;-89
2023/10/08 02:09:16;;;;;;;0.15;0.15;;;;;;;18.80;100.00;100748.22;5053003;28;20036;-90
2023/10/08 02:11:53;;;;;;;0.20;0.20;;;;;;;18.83;100.00;100744.56;5053192;28;20057;-91
2023/10/08 02:14:20;;;;;;;0.20;0.20;;;;;;;18.70;100.00;100734.13;5052997;28;20040;-90
2023/10/08 02:16:46;;;;;;;0.20;0.20;;;;;;;18.81;100.00;100747.00;5053464;28;20029;-90
2023/10/08 02:19:13;;;;;;;0.20;0.20;;;;;;;18.86;100.00;100739.34;5053020;28;20542;-90
2023/10/08 02:21:46;;;;;;;0.20;0.20;;;;;;;18.73;100.00;100727.66;5052951;28;20484;-90
2023/10/08 02:24:12;;;;;;;0.20;0.20;;;;;;;18.80;100.00;100742.56;5052919;28;20029;-90
2023/10/08 02:26:38;;;;;;;0.20;0.20;;;;;;;18.70;100.00;100743.38;5052479;28;20021;-90
2023/10/08 02:29:10;;;;;;;0.20;0.20;;;;;;;18.66;100.00;100739.72;5053145;28;20036;-90
2023/10/08 02:31:41;;;;;;;0.20;0.20;;;;;;;18.68;100.00;100757.06;5052872;28;20086;-90
2023/10/08 02:34:12;;;;;;;0.20;0.20;;;;;;;18.68;100.00;100753.44;5053041;28;20128;-92
2023/10/08 02:36:40;;;;;;;0.20;0.20;;;;;;;18.60;100.00;100749.81;5048517;28;20026;-90
2023/10/08 02:39:13;;;;;;;0.20;0.20;;;;;;;18.63;100.00;100760.25;5032691;28;20029;-90
2023/10/08 02:41:41;;;;;;;0.20;0.20;;;;;;;18.65;100.00;100762.69;5033039;28;20018;-90
2023/10/08 02:44:11;;;;;;;0.20;0.20;;;;;;;18.56;100.00;100760.28;5032891;28;20025;-90
2023/10/08 02:46:40;;;;;;;0.20;0.20;;;;;;;18.52;100.00;100749.00;5032750;28;20025;-91
2023/10/08 02:49:10;;;;;;;0.20;0.20;;;;;;;18.55;100.00;100750.22;5035184;28;20093;-91
2023/10/08 02:51:35;;;;;;;0.20;0.20;;;;;;;18.50;100.00;100745.78;5032485;28;20366;-91
2023/10/08 02:54:05;;;;;;;0.20;0.20;;;;;;;18.41;100.00;100734.09;5032392;28;20060;-90
2023/10/08 02:56:32;;;;;;;0.20;0.20;;;;;;;18.46;100.00;100749.81;5032471;28;20029;-91
2023/10/08 02:58:57;;;;;;;0.20;0.20;;;;;;;18.52;100.00;100759.47;5032570;28;20520;-91
2023/10/08 03:01:23;;;;;;;0.20;0.20;;;;;;;18.48;100.00;100753.03;5032397;28;20125;-90
2023/10/08 03:03:48;;;;;;;0.20;0.20;;;;;;;18.38;100.00;100742.59;5032383;28;20043;-91
2023/10/08 03:06:14;;;;;;;0.20;0.20;;;;;;;18.46;100.00;100767.50;5033446;28;20385;-91
2023/10/08 03:08:41;;;;;;;0.20;0.20;;;;;;;18.29;100.00;100740.16;5051822;28;20025;-90
2023/10/08 03:11:16;;;;;;;0.20;0.20;;;;;;;18.37;100.00;100755.03;5052050;28;20087;-90
2023/10/08 03:13:52;;;;;;;0.20;0.20;;;;;;;18.34;100.00;100748.22;5051849;28;20068;-90
2023/10/08 03:16:21;;;;;;;0.20;0.20;;;;;;;18.17;100.00;100726.47;5051988;28;20394;-91
2023/10/08 03:18:50;;;;;;;0.20;0.20;;;;;;;18.33;100.00;100741.78;5052168;28;20040;-91
2023/10/08 03:21:33;;;;;;;0.20;0.20;;;;;;;18.32;100.00;100751.44;5052197;28;20021;-91
2023/10/08 03:23:59;;;;;;;0.20;0.20;;;;;;;18.28;100.00;100755.44;5051895;28;20032;-90
2023/10/08 03:26:33;;;;;;;0.20;0.20;;;;;;;18.21;100.00;100725.25;5051489;28;20465;-91
2023/10/08 03:29:05;;;;;;;0.20;0.20;;;;;;;18.32;100.00;100750.59;5051834;28;20037;-90
2023/10/08 03:34:15;;;;;;;;;;;;;;;18.27;100.00;100753.84;5053260;28;20064;-91
2023/10/08 03:36:44;;;;;;;0.20;0.20;;;;;;;18.14;100.00;100733.72;5051691;28;19919;-91
2023/10/08 03:39:14;;;;;;;0.20;0.20;;;;;;;18.20;100.00;100743.38;5050788;28;20463;-89
2023/10/08 03:41:40;;;;;;;0.20;0.20;;;;;;;18.33;100.00;100755.06;5051362;28;20032;-90
2023/10/08 03:44:12;;;;;;;0.20;0.20;;;;;;;18.29;100.00;100766.31;5051371;28;20037;-90
2023/10/08 03:46:46;;;;;;;0.20;0.20;;;;;;;18.25;100.00;100759.06;5051262;28;20102;-91
2023/10/08 03:51:48;;;;;;;0.20;0.20;;;;;;;18.28;100.00;100761.88;5052577;28;20283;-91
2023/10/08 03:54:17;;;;;;;0.20;0.20;;;;;;;18.24;100.00;100749.81;5051684;28;20049;-90
2023/10/08 03:56:46;;;;;;;0.20;0.20;;;;;;;18.30;100.00;100756.66;5051482;28;20461;-89
2023/10/08 03:59:34;;;;;;;0.20;0.20;;;;;;;18.32;100.00;100753.41;5051299;28;20025;-90
2023/10/08 04:02:13;;;;;;;0.20;0.20;;;;;;;18.28;100.00;100756.25;5051536;28;20499;-91
2023/10/08 04:04:59;;;;;;;0.20;0.20;;;;;;;18.08;100.00;100729.69;5051473;28;20025;-90
2023/10/08 04:07:38;;;;;;;0.20;0.20;;;;;;;18.21;100.00;100756.22;5051132;28;20495;-91
2023/10/08 04:12:45;;;;;;;0.20;0.20;;;;;;;18.21;100.00;100750.59;5052474;28;20112;-89
2023/10/08 04:15:16;;;;;;;0.20;0.20;;;;;;;18.14;100.00;100744.97;5051189;28;20550;-88
2023/10/08 04:17:44;;;;;;;0.20;0.20;;;;;;;18.21;100.00;100761.88;5052059;28;20479;-90
2023/10/08 04:20:33;;;;;;;0.20;0.20;;;;;;;18.11;100.00;100748.59;5051005;28;20059;-90
2023/10/08 04:23:04;;;;;;;0.20;0.20;;;;;;;17.93;100.00;100728.84;5050951;28;20047;-90
2023/10/08 04:25:31;;;;;;;0.20;0.20;;;;;;;17.91;100.00;100719.22;5050911;28;20039;-89
2023/10/08 04:28:01;;;;;;;0.20;0.20;;;;;;;18.14;100.00;100750.59;5050849;28;20021;-89
2023/10/08 04:30:35;;;;;;;0.20;0.20;;;;;;;18.05;100.00;100753.00;5050897;28;20025;-90
2023/10/08 04:33:12;;;;;;;0.20;0.20;;;;;;;17.99;100.00;100755.41;5050976;28;20021;-90
2023/10/08 04:35:48;;;;;;;0.20;0.20;;;;;;;17.78;100.00;100715.97;5050894;28;20098;-89
2023/10/08 04:38:25;;;;;;;0.20;0.20;;;;;;;17.92;100.00;100740.53;5050674;28;20190;-90
2023/10/08 04:40:53;;;;;;;0.20;0.20;;;;;;;17.98;100.00;100753.00;5050327;28;20098;-89
2023/10/08 04:43:27;;;;;;;0.20;0.20;;;;;;;17.94;100.00;100752.19;5050863;28;20021;-90
2023/10/08 04:45:59;;;;;;;0.20;0.20;;;;;;;17.92;100.00;100754.59;5050845;28;20036;-91
2023/10/08 04:48:27;;;;;;;0.20;0.20;;;;;;;17.94;100.00;100750.16;5045034;28;20059;-90
2023/10/08 04:50:58;;;;;;;0.20;0.20;;;;;;;17.88;100.00;100748.16;5030779;28;20022;-90
2023/10/08 04:53:37;;;;;;;0.20;0.20;;;;;;;17.87;100.00;100747.34;5030667;28;20038;-90
2023/10/08 04:56:06;;;;;;;0.20;0.20;;;;;;;17.82;100.00;100744.13;5030644;28;20073;-90
2023/10/08 04:58:36;;;;;;;0.20;0.20;;;;;;;17.71;100.00;100727.97;5037661;28;20068;-90
2023/10/08 05:01:20;;;;;;;0.20;0.20;;;;;;;17.74;100.00;100727.22;5050525;28;20094;-91
2023/10/08 05:14:34;;;;;;;0.20;0.20;;;;;;;17.39;100.00;100719.44;5051613;28;20041;-90
2023/10/08 05:17:10;;;;;;;0.20;0.20;;;;;;;17.56;100.00;100729.13;5050387;28;20025;-91
2023/10/08 05:19:48;;;;;;;0.20;0.20;;;;;;;18.05;100.00;100756.63;5051149;28;20025;-90
2023/10/08 05:22:21;;;;;;;0.20;0.20;;;;;;;18.21;98.89;100728.06;5049865;28;20029;-92
2023/10/08 05:30:25;;;;;;;0.20;0.20;;;;;;;19.20;91.52;100760.19;5051339;28;20029;-90
2023/10/08 05:35:38;;;;;;;0.20;0.20;;;;;;;20.14;85.74;100778.31;5051055;28;20072;-90
2023/10/08 05:38:13;;;;;;;0.20;0.20;;;;;;;20.57;83.47;100778.00;5066281;28;20376;-91
2023/10/08 05:54:35;;;;;;;0.20;0.20;;;;;;;23.32;63.76;100774.94;5032162;28;20041;-89
2023/10/08 05:59:38;;;;;;;0.15;0.15;;;;;;;24.26;58.90;100808.66;5029569;28;20483;-88
2023/10/08 06:02:25;;;;;;;0.20;0.20;;;;;;;24.38;57.51;100804.34;5030221;28;20036;-89
2023/10/08 06:05:20;;;;;;;0.20;0.20;;;;;;;24.88;56.49;100815.28;5032158;28;20016;-89
2023/10/08 06:13:05;;;;;;;0.10;0.10;;;;;;;25.67;53.88;100816.75;5053880;28;20072;-88
2023/10/08 06:15:48;;;;;;;0.20;0.20;;;;;;;25.47;54.08;100816.16;5051988;28;20515;-89
2023/10/08 06:18:18;;;;;;;0.13;0.13;;;;;;;26.14;51.75;100801.94;5050877;28;20558;-90
2023/10/08 06:20:45;;;;;;;0.20;0.20;;;;;;;26.55;51.04;100823.06;5050996;28;20055;-89
2023/10/08 06:23:13;;;;;;;0.20;0.20;;;;;;;26.84;49.94;100817.19;5050630;28;20130;-89
2023/10/08 06:25:45;;;;;;;0.10;0.10;;;;;;;27.18;48.84;100833.59;5051113;28;20025;-89
2023/10/08 06:28:15;;;;;;;0.10;0.10;;;;;;;26.94;49.76;100836.00;5051974;28;20021;-89
2023/10/08 06:30:41;;;;;;;0.20;0.20;;;;;;;27.07;49.36;100845.38;5052001;28;20024;-89
2023/10/08 06:33:07;;;;;;;0.10;0.10;;;;;;;27.24;48.55;100820.31;5052146;28;20055;-89
2023/10/08 06:35:33;;;;;;;0.10;0.10;;;;;;;27.39;49.43;100834.88;5052019;28;20024;-89
2023/10/08 06:37:59;;;;;;;0.20;0.20;;;;;;;27.30;49.99;100834.78;5036381;28;20112;-88
2023/10/08 06:40:59;;;;;;;0.10;0.10;;;;;;;27.68;48.96;100843.97;5032127;28;20120;-89
2023/10/08 06:43:26;;;;;;;0.15;0.15;;;;;;;26.86;49.83;100841.19;5034074;28;20036;-88
2023/10/08 06:45:52;;;;;;;0.10;0.10;;;;;;;27.29;49.09;100841.78;5032169;28;20030;-89
2023/10/08 06:48:20;;;;;;;0.10;0.10;;;;;;;27.58;47.92;100827.22;5032268;28;20025;-90
2023/10/08 06:50:46;;;;;;;0.10;0.10;;;;;;;27.55;48.50;100856.75;5033586;28;20033;-89
2023/10/08 06:53:14;;;;;;;0.15;0.15;;;;;;;27.98;47.42;100855.19;5032901;28;20024;-89
2023/10/08 06:55:43;;;;;;;0.10;0.10;;;;;;;27.35;50.01;100849.28;5031710;28;20057;-89
2023/10/08 06:58:09;;;;;;;0.20;0.20;;;;;;;27.20;51.51;100859.63;5032024;28;20454;-89
2023/10/08 07:00:55;;;;;;;0.10;0.10;;;;;;;27.21;52.64;100848.97;5032092;28;20038;-89
2023/10/08 07:03:20;;;;;;;0.10;0.10;;;;;;;27.51;51.75;100847.50;5031568;28;20099;-89
2023/10/08 07:06:02;;;;;;;0.10;0.10;;;;;;;27.63;51.37;100864.59;5048480;28;20477;-89
2023/10/08 07:08:31;;;;;;;0.10;0.10;;;;;;;27.23;53.07;100843.63;5053029;28;20071;-89
2023/10/08 07:10:59;;;;;;;0.10;0.10;;;;;;;27.26;54.27;100852.06;5051349;28;20082;-89
2023/10/08 07:13:25;;;;;;;0.20;0.20;;;;;;;27.91;52.96;100859.09;5051505;28;20362;-89
2023/10/08 07:15:52;;;;;;;0.10;0.10;;;;;;;28.39;51.55;100869.09;5051470;28;20039;-89
2023/10/08 07:18:29;;;;;;;0.10;0.10;;;;;;;28.24;52.30;100855.81;5051541;28;20120;-89
2023/10/08 07:21:00;;;;;;;0.17;0.17;;;;;;;28.93;51.35;100864.03;5051285;28;20449;-89
2023/10/08 07:23:29;;;;;;;0.10;0.10;;;;;;;28.61;52.32;100871.88;5051317;28;20480;-89
2023/10/08 07:26:11;;;;;;;0.10;0.10;;;;;;;28.61;51.41;100883.34;5054833;28;20029;-89
2023/10/08 07:28:41;;;;;;;0.10;0.10;;;;;;;27.82;53.73;100873.34;5055208;28;20101;-89
2023/10/08 07:31:17;;;;;;;0.10;0.10;;;;;;;26.99;57.46;100872.53;5056244;28;20056;-89
2023/10/08 07:33:57;;;;;;;0.10;0.10;;;;;;;26.67;59.74;100875.69;5052402;28;20032;-89
2023/10/08 07:36:27;;;;;;;0.10;0.10;;;;;;;27.40;58.29;100867.91;5058788;28;20025;-88
2023/10/08 07:38:53;;;;;;;0.20;0.20;;;;;;;27.64;56.47;100865.38;5076010;28;20097;-89
2023/10/08 07:41:20;;;;;;;0.20;0.20;;;;;;;27.36;57.89;100864.38;5075593;28;20427;-89
2023/10/08 07:43:56;;;;;;;0.20;0.20;;;;;;;27.68;56.95;100861.13;5074817;28;20021;-90
2023/10/08 07:46:27;;;;;;;0.10;0.10;;;;;;;27.62;56.87;100843.00;5071582;28;20111;-89
2023/10/08 07:48:58;;;;;;;0.10;0.10;;;;;;;28.47;53.91;100866.75;5073063;28;20024;-90
2023/10/08 07:51:23;;;;;;;0.13;0.13;;;;;;;28.31;52.84;100872.69;5071838;28;20020;-89
2023/10/08 07:53:54;;;;;;;0.10;0.10;;;;;;;28.49;51.01;100869.91;5070673;28;20043;-89
2023/10/08 07:56:19;;;;;;;0.10;0.10;;;;;;;28.69;50.58;100860.94;5070450;28;20029;-89
2023/10/08 07:58:45;;;;;;;0.10;0.10;;;;;;;28.57;52.29;100873.31;5070576;28;20131;-89
2023/10/08 08:01:13;;;;;;;0.10;0.10;;;;;;;29.20;51.09;100878.44;5070232;28;20035;-89
2023/10/08 08:03:42;;;;;;;0.10;0.10;;;;;;;28.05;52.99;100855.69;5070594;28;20082;-89
2023/10/08 08:06:09;;;;;;;0.10;0.10;;;;;;;28.36;52.07;100870.03;5070062;28;20159;-89
2023/10/08 08:08:38;;;;;;;0.10;0.10;;;;;;;28.86;51.67;100861.44;5050549;28;20029;-89
2023/10/08 08:11:11;;;;;;;0.10;0.10;;;;;;;29.16;49.63;100886.38;5050468;28;20040;-89
2023/10/08 08:13:44;;;;;;;0.10;0.10;;;;;;;28.62;50.99;100852.66;5050543;28;20043;-90
2023/10/08 08:16:20;;;;;;;0.10;0.10;;;;;;;29.66;48.41;100875.59;5050329;28;20530;-89
2023/10/08 08:18:47;;;;;;;0.10;0.10;;;;;;;29.22;49.25;100867.28;5051644;28;20025;-91
2023/10/08 08:21:16;;;;;;;0.10;0.10;;;;;;;29.18;50.08;100869.50;5050912;28;20396;-88
2023/10/08 08:23:48;;;;;;;0.10;0.10;;;;;;;30.09;47.40;100865.00;5050208;28;20029;-90
2023/10/08 08:26:26;;;;;;;;;;;;;;;29.43;48.71;100871.28;5051702;28;20028;-90
2023/10/08 08:28:56;;;;;;;0.10;0.10;;;;;;;29.40;48.21;100866.50;5049831;28;19916;-89
2023/10/08 08:31:23;;;;;;;0.10;0.10;;;;;;;28.48;50.01;100859.75;5049949;28;20112;-90
2023/10/08 08:33:59;;;;;;;0.10;0.10;;;;;;;29.03;49.01;100859.94;5049814;28;20604;-89
2023/10/08 08:36:27;;;;;;;0.10;0.10;;;;;;;28.93;48.20;100862.00;5049971;28;20175;-89
2023/10/08 08:38:53;;;;;;;0.10;0.10;;;;;;;29.16;47.01;100869.19;5050420;28;20481;-89
2023/10/08 08:41:20;;;;;;;0.10;0.10;;;;;;;29.04;47.02;100858.66;5050273;28;20070;-90
2023/10/08 08:43:58;;;;;;;0.17;0.17;;;;;;;28.64;48.36;100870.94;5050131;28;20024;-89
2023/10/08 08:46:37;;;;;;;0.10;0.10;;;;;;;28.75;47.29;100875.44;5047129;28;20039;-89
2023/10/08 08:49:05;;;;;;;0.13;0.13;;;;;;;29.17;46.62;100873.63;5050226;28;20031;-90
2023/10/08 08:51:30;;;;;;;0.10;0.10;;;;;;;29.83;44.66;100876.06;5046422;28;20017;-89
2023/10/08 08:53:56;;;;;;;0.10;0.10;;;;;;;29.66;44.40;100851.84;5049792;28;20382;-89
2023/10/08 08:56:25;;;;;;;0.10;0.10;;;;;;;29.86;42.64;100848.50;5049503;28;20027;-89
2023/10/08 08:58:51;;;;;;;0.10;0.10;;;;;;;28.35;45.29;100856.19;5049899;28;20044;-89
2023/10/08 09:01:18;;;;;;;0.10;0.10;;;;;;;29.50;42.78;100870.16;5050936;28;20029;-89
2023/10/08 09:03:45;;;;;;;0.10;0.10;;;;;;;29.41;44.05;100856.63;5049961;28;20040;-89
2023/10/08 09:06:11;;;;;;;0.10;0.10;;;;;;;29.65;42.59;100871.13;5049835;28;20025;-89
2023/10/08 09:08:41;;;;;;;0.10;0.10;;;;;;;28.25;45.61;100857.38;5049767;28;20032;-89
2023/10/08 09:11:08;;;;;;;0.10;0.10;;;;;;;29.54;43.34;100847.91;5049630;28;20032;-89
2023/10/08 09:13:34;;;;;;;0.10;0.10;;;;;;;28.95;43.50;100852.91;5049779;28;20035;-89
2023/10/08 09:16:20;;;;;;;0.10;0.10;;;;;;;28.72;44.29;100854.28;5049578;28;20044;-89
2023/10/08 09:18:51;;;;;;;0.10;0.10;;;;;;;29.73;42.01;100842.94;5048936;28;20139;-88
2023/10/08 09:21:19;;;;;;;0.17;0.17;;;;;;;29.57;41.68;100826.88;5051587;28;20082;-88
2023/10/08 09:23:50;;;;;;;0.10;0.10;;;;;;;30.09;40.12;100847.78;5047204;28;20181;-89
2023/10/08 09:26:22;;;;;;;0.10;0.10;;;;;;;30.87;38.11;100836.66;5032530;28;20025;-90
2023/10/08 09:28:48;;;;;;;0.10;0.10;;;;;;;30.32;36.73;100828.31;5030710;28;20151;-89
2023/10/08 09:31:14;;;;;;;0.10;0.10;;;;;;;30.29;37.73;100843.63;5039341;28;20026;-89
2023/10/08 09:33:41;;;;;;;0.10;0.10;;;;;;;30.31;34.93;100810.28;5046838;28;20516;-89
2023/10/08 09:36:18;;;;;;;0.10;0.10;;;;;;;31.15;32.62;100829.44;5044330;28;20040;-88
2023/10/08 09:38:44;;;;;;;0.10;0.10;;;;;;;31.10;31.38;100832.19;5051747;28;20025;-89
2023/10/08 09:41:12;;;;;;;0.10;0.10;;;;;;;31.01;31.09;100825.22;5051063;28;20025;-88
2023/10/08 09:43:41;;;;;;;0.10;0.10;;;;;;;30.33;31.77;100813.47;5050854;28;20255;-88
2023/10/08 09:46:19;;;;;;;0.10;0.10;;;;;;;31.37;31.47;100840.63;5050739;28;20460;-88
2023/10/08 09:48:51;;;;;;;0.10;0.10;;;;;;;31.49;31.50;100836.69;5050848;28;20029;-89
2023/10/08 09:51:17;;;;;;;0.10;0.10;;;;;;;30.68;32.83;100825.25;5050925;28;20047;-89
2023/10/08 09:54:04;;;;;;;0.10;0.10;;;;;;;31.09;31.69;100807.59;5050519;28;20480;-88
2023/10/08 09:56:31;;;;;;;0.17;0.17;;;;;;;31.78;30.66;100824.41;5050903;28;20214;-89
2023/10/08 09:58:59;;;;;;;0.10;0.10;;;;;;;31.78;30.58;100810.03;5052047;28;20564;-88
2023/10/08 10:01:26;;;;;;;0.10;0.10;;;;;;;31.63;29.53;100828.56;5052014;28;20124;-89
2023/10/08 10:03:52;;;;;;;0.10;0.10;;;;;;;32.20;30.12;100820.47;5052802;28;20021;-89
2023/10/08 10:06:18;;;;;;;0.10;0.10;;;;;;;32.37;28.75;100817.09;5053471;28;20069;-88
2023/10/08 10:08:45;;;;;;;0.10;0.10;;;;;;;31.39;29.34;100831.50;5072208;28;20040;-88
2023/10/08 10:11:11;;;;;;;0.10;0.10;;;;;;;31.98;28.96;100820.09;5072316;28;20032;-89
2023/10/08 10:13:44;;;;;;;0.10;0.10;;;;;;;32.12;29.08;100825.06;5072607;28;20303;-89
2023/10/08 10:16:13;;;;;;;0.10;0.10;;;;;;;31.44;29.31;100800.00;5072282;28;20043;-89
2023/10/08 10:18:39;;;;;;;0.10;0.10;;;;;;;31.08;29.59;100814.66;5073491;28;20373;-88
2023/10/08 10:21:13;;;;;;;0.10;0.10;;;;;;;31.30;29.65;100821.66;5072256;28;20039;-89
2023/10/08 10:23:43;;;;;;;0.10;0.10;;;;;;;31.48;29.09;100811.28;5072419;28;20553;-88
2023/10/08 10:26:31;;;;;;;0.10;0.10;;;;;;;30.78;30.06;100809.56;5071758;28;20063;-88
2023/10/08 10:29:14;;;;;;;0.10;0.10;;;;;;;30.88;28.81;100804.56;5072264;28;20025;-88
2023/10/08 10:32:02;;;;;;;0.10;0.10;;;;;;;30.63;29.08;100811.56;5072875;28;20502;-87
2023/10/08 10:34:27;;;;;;;0.10;0.10;;;;;;;30.30;30.72;100805.03;5073733;28;20035;-88
2023/10/08 10:36:55;;;;;;;0.10;0.10;;;;;;;29.31;32.16;100800.59;5069071;28;20029;-87
2023/10/08 10:39:32;;;;;;;0.10;0.10;;;;;;;29.30;31.97;100803.94;5053130;28;20025;-88
2023/10/08 10:42:05;;;;;;;0.10;0.10;;;;;;;29.70;31.32;100809.47;5053148;28;20061;-88
2023/10/08 10:44:32;;;;;;;0.10;0.10;;;;;;;29.96;28.75;100801.31;5051968;28;20033;-88
2023/10/08 10:49:53;;;;;;;0.10;0.10;;;;;;;31.17;24.96;100801.00;5033040;28;20029;-88
2023/10/08 10:52:45;;;;;;;0.10;0.10;;;;;;;32.01;25.34;100802.63;5032230;28;20550;-89
2023/10/08 10:57:44;;;;;;;0.10;0.10;;;;;;;31.13;25.99;100802.47;5033545;28;20030;-88
2023/10/08 11:02:59;;;;;;;0.15;0.15;;;;;;;31.63;25.64;100783.34;5033274;28;20028;-89
2023/10/08 11:05:28;;;;;;;0.10;0.10;;;;;;;31.68;25.14;100773.22;5031961;28;20397;-89
2023/10/08 11:08:04;;;;;;;0.10;0.10;;;;;;;31.20;24.92;100788.50;5048028;28;20021;-89
2023/10/08 11:10:31;;;;;;;0.10;0.10;;;;;;;30.78;25.85;100783.72;5051781;28;20033;-89
2023/10/08 11:13:00;;;;;;;0.10;0.10;;;;;;;30.62;26.47;100769.75;5051715;28;20052;-89
2023/10/08 11:15:37;;;;;;;0.10;0.10;;;;;;;30.91;26.03;100762.59;5051798;28;20033;-89
2023/10/08 11:18:10;;;;;;;0.10;0.10;;;;;;;31.12;25.00;100778.69;5051944;28;20021;-88
2023/10/08 11:20:44;;;;;;;0.10;0.10;;;;;;;30.70;25.87;100756.66;5051258;28;20028;-88
2023/10/08 11:23:21;;;;;;;0.20;0.20;;;;;;;31.11;26.02;100771.38;5051531;28;20491;-88
2023/10/08 11:25:54;;;;;;;0.13;0.13;;;;;;;30.58;25.98;100772.03;5051100;28;20032;-88
2023/10/08 11:28:19;;;;;;;;;;;;;;;30.02;26.80;100770.66;5052011;28;20039;-88
2023/10/08 11:30:46;;;;;;;0.10;0.10;;;;;;;30.80;24.95;100756.59;5052862;28;20421;-89
2023/10/08 11:33:15;;;;;;;0.10;0.10;;;;;;;30.18;25.37;100758.03;5051637;28;20119;-88
2023/10/08 11:36:01;;;;;;;0.10;0.10;;;;;;;29.98;26.39;100749.97;5051263;28;20141;-88
2023/10/08 11:38:27;;;;;;;0.10;0.10;;;;;;;29.14;26.13;100742.81;5051138;28;20048;-88
2023/10/08 11:40:56;;;;;;;0.10;0.10;;;;;;;28.94;26.45;100736.78;5051311;28;20508;-89
2023/10/08 11:43:25;;;;;;;0.20;0.20;;;;;;;29.26;25.93;100729.59;5051348;28;20047;-91
2023/10/08 11:45:52;;;;;;;0.10;0.10;;;;;;;29.68;26.23;100749.75;5051505;28;20404;-89
2023/10/08 11:48:25;;;;;;;0.10;0.10;;;;;;;29.50;26.20;100732.56;5051213;28;20430;-89
2023/10/08 11:50:51;;;;;;;0.10;0.10;;;;;;;29.70;26.23;100730.00;5051117;28;20476;-89
2023/10/08 11:53:19;;;;;;;0.10;0.10;;;;;;;29.70;25.65;100730.00;5051105;28;20067;-89
2023/10/08 11:55:47;;;;;;;0.20;0.20;;;;;;;30.52;26.03;100737.47;5052045;28;20041;-88
2023/10/08 11:58:17;;;;;;;0.17;0.17;;;;;;;30.84;25.05;100739.94;5050797;28;20024;-89
2023/10/08 12:00:44;;;;;;;0.10;0.10;;;;;;;30.07;25.02;100735.59;5052205;28;20365;-89
2023/10/08 12:03:17;;;;;;;0.10;0.10;;;;;;;30.41;25.00;100733.53;5050973;28;20032;-88
2023/10/08 12:05:47;;;;;;;0.10;0.10;;;;;;;30.67;24.72;100731.75;5052199;28;20025;-90
2023/10/08 12:08:20;;;;;;;0.10;0.10;;;;;;;30.69;25.35;100729.22;5050757;28;20472;-89
2023/10/08 12:10:47;;;;;;;0.10;0.10;;;;;;;30.39;26.50;100713.13;5050465;28;20033;-89
2023/10/08 12:13:16;;;;;;;0.20;0.20;;;;;;;30.99;25.54;100735.84;5050690;28;20107;-88
2023/10/08 12:15:44;;;;;;;0.10;0.10;;;;;;;30.67;25.34;100726.00;5050353;28;20163;-88
2023/10/08 12:18:15;;;;;;;0.10;0.10;;;;;;;30.75;24.85;100724.41;5050464;28;20040;-89
2023/10/08 12:20:46;;;;;;;0.10;0.10;;;;;;;31.15;23.91;100697.22;5050628;28;20032;-89
2023/10/08 12:23:19;;;;;;;0.10;0.10;;;;;;;30.91;24.29;100705.13;5050429;28;20071;-88
2023/10/08 12:25:51;;;;;;;0.10;0.10;;;;;;;31.05;24.33;100698.59;5050907;28;20029;-89
2023/10/08 12:28:18;;;;;;;0.10;0.10;;;;;;;30.70;25.04;100707.03;5050658;28;20023;-89
2023/10/08 12:30:45;;;;;;;0.10;0.10;;;;;;;30.77;28.19;100695.16;5050479;28;20036;-89
2023/10/08 12:33:12;;;;;;;0.20;0.20;;;;;;;30.91;30.95;100694.44;5050376;28;20165;-90
2023/10/08 12:35:53;;;;;;;0.10;0.10;;;;;;;31.08;31.85;100685.34;5050320;28;20563;-90
2023/10/08 12:38:22;;;;;;;0.10;0.10;;;;;;;30.32;33.82;100681.94;5050288;28;20025;-89
2023/10/08 12:40:53;;;;;;;0.10;0.10;;;;;;;29.81;33.96;100659.84;5050359;28;20120;-90